sensor_id;sensor_type;location;lat;lon;timestamp;P1;durP1;ratioP1;P2;durP2;ratioP2
71116;SDS011;58775;46.992;9.518;2023-09-19T00:01:09;1.05;;;0.50;;
71116;SDS011;58775;46.992;9.518;2023-09-19T00:03:12;4.13;;;1.00;;
71116;SDS011;58775;46.992;9.518;2023-09-19T00:05:13;2.50;;;0.87;;
71116;SDS011;58775;46.992;9.518;2023-09-19T00:07:14;3.47;;;0.55;;
71116;SDS011;58775;46.992;9.518;2023-09-19T00:09:16;3.58;;;0.60;;
71116;SDS011;58775;46.992;9.518;2023-09-19T00:11:17;2.57;;;0.60;;
71116;SDS011;58775;46.992;9.518;2023-09-19T00:13:18;1.63;;;0.50;;
71116;SDS011;58775;46.992;9.518;2023-09-19T00:15:19;3.88;;;0.60;;
71116;SDS011;58775;46.992;9.518;2023-09-19T00:17:21;1.38;;;0.55;;
71116;SDS011;58775;46.992;9.518;2023-09-19T00:19:22;2.13;;;0.80;;
71116;SDS011;58775;46.992;9.518;2023-09-19T00:21:24;4.15;;;0.68;;
71116;SDS011;58775;46.992;9.518;2023-09-19T00:23:25;2.20;;;0.50;;
71116;SDS011;58775;46.992;9.518;2023-09-19T00:25:25;1.30;;;0.50;;
71116;SDS011;58775;46.992;9.518;2023-09-19T00:27:26;2.08;;;0.63;;
71116;SDS011;58775;46.992;9.518;2023-09-19T00:29:29;1.23;;;0.47;;
71116;SDS011;58775;46.992;9.518;2023-09-19T00:31:31;1.67;;;0.60;;
71116;SDS011;58775;46.992;9.518;2023-09-19T00:33:32;7.67;;;0.80;;
71116;SDS011;58775;46.992;9.518;2023-09-19T00:35:34;2.17;;;0.60;;
71116;SDS011;58775;46.992;9.518;2023-09-19T00:37:35;3.03;;;0.93;;
71116;SDS011;58775;46.992;9.518;2023-09-19T00:39:36;3.70;;;0.60;;
71116;SDS011;58775;46.992;9.518;2023-09-19T00:41:37;1.65;;;0.75;;
71116;SDS011;58775;46.992;9.518;2023-09-19T00:43:38;1.80;;;0.60;;
71116;SDS011;58775;46.992;9.518;2023-09-19T00:45:42;3.13;;;0.70;;
71116;SDS011;58775;46.992;9.518;2023-09-19T00:47:49;3.90;;;0.70;;
71116;SDS011;58775;46.992;9.518;2023-09-19T00:49:55;2.97;;;0.65;;
71116;SDS011;58775;46.992;9.518;2023-09-19T00:51:57;2.88;;;0.80;;
71116;SDS011;58775;46.992;9.518;2023-09-19T00:53:59;3.67;;;0.80;;
71116;SDS011;58775;46.992;9.518;2023-09-19T00:56:00;6.67;;;1.20;;
71116;SDS011;58775;46.992;9.518;2023-09-19T00:58:04;2.05;;;0.80;;
71116;SDS011;58775;46.992;9.518;2023-09-19T01:00:08;2.58;;;0.52;;
71116;SDS011;58775;46.992;9.518;2023-09-19T01:02:16;3.25;;;0.77;;
71116;SDS011;58775;46.992;9.518;2023-09-19T01:04:17;1.77;;;0.50;;
71116;SDS011;58775;46.992;9.518;2023-09-19T01:06:18;3.27;;;0.60;;
71116;SDS011;58775;46.992;9.518;2023-09-19T01:08:19;3.63;;;0.80;;
71116;SDS011;58775;46.992;9.518;2023-09-19T01:10:20;2.95;;;0.82;;
71116;SDS011;58775;46.992;9.518;2023-09-19T01:12:22;3.05;;;0.70;;
71116;SDS011;58775;46.992;9.518;2023-09-19T01:21:44;2.10;;;0.60;;
71116;SDS011;58775;46.992;9.518;2023-09-19T01:26:12;2.05;;;0.85;;
71116;SDS011;58775;46.992;9.518;2023-09-19T01:30:26;3.08;;;0.93;;
71116;SDS011;58775;46.992;9.518;2023-09-19T01:32:32;5.07;;;1.10;;
71116;SDS011;58775;46.992;9.518;2023-09-19T01:34:43;3.78;;;0.90;;
71116;SDS011;58775;46.992;9.518;2023-09-19T01:36:45;3.67;;;1.35;;
71116;SDS011;58775;46.992;9.518;2023-09-19T01:38:47;3.78;;;0.90;;
71116;SDS011;58775;46.992;9.518;2023-09-19T01:40:52;4.38;;;1.02;;
71116;SDS011;58775;46.992;9.518;2023-09-19T01:47:38;5.07;;;1.20;;
71116;SDS011;58775;46.992;9.518;2023-09-19T01:49:55;3.95;;;1.08;;
71116;SDS011;58775;46.992;9.518;2023-09-19T01:52:12;5.72;;;1.13;;
71116;SDS011;58775;46.992;9.518;2023-09-19T01:54:26;4.15;;;1.00;;
71116;SDS011;58775;46.992;9.518;2023-09-19T01:56:36;2.70;;;0.80;;
71116;SDS011;58775;46.992;9.518;2023-09-19T01:58:45;3.42;;;0.82;;
71116;SDS011;58775;46.992;9.518;2023-09-19T02:00:49;3.72;;;1.10;;
71116;SDS011;58775;46.992;9.518;2023-09-19T02:02:52;4.45;;;1.30;;
71116;SDS011;58775;46.992;9.518;2023-09-19T02:04:56;2.95;;;0.85;;
71116;SDS011;58775;46.992;9.518;2023-09-19T02:07:00;8.15;;;1.27;;
71116;SDS011;58775;46.992;9.518;2023-09-19T02:09:03;4.60;;;1.20;;
71116;SDS011;58775;46.992;9.518;2023-09-19T02:11:04;4.03;;;0.98;;
71116;SDS011;58775;46.992;9.518;2023-09-19T02:13:06;2.47;;;1.00;;
71116;SDS011;58775;46.992;9.518;2023-09-19T02:15:07;4.00;;;1.02;;
71116;SDS011;58775;46.992;9.518;2023-09-19T02:17:09;4.68;;;1.17;;
71116;SDS011;58775;46.992;9.518;2023-09-19T02:19:13;5.53;;;1.83;;
71116;SDS011;58775;46.992;9.518;2023-09-19T02:21:14;2.83;;;0.90;;
71116;SDS011;58775;46.992;9.518;2023-09-19T02:23:15;3.85;;;1.15;;
71116;SDS011;58775;46.992;9.518;2023-09-19T02:25:16;4.93;;;1.17;;
71116;SDS011;58775;46.992;9.518;2023-09-19T02:27:16;3.50;;;1.20;;
71116;SDS011;58775;46.992;9.518;2023-09-19T02:29:18;4.07;;;1.23;;
71116;SDS011;58775;46.992;9.518;2023-09-19T02:31:18;4.70;;;1.10;;
71116;SDS011;58775;46.992;9.518;2023-09-19T02:33:20;6.20;;;1.38;;
71116;SDS011;58775;46.992;9.518;2023-09-19T02:35:20;3.57;;;1.20;;
71116;SDS011;58775;46.992;9.518;2023-09-19T02:37:21;4.15;;;1.20;;
71116;SDS011;58775;46.992;9.518;2023-09-19T02:39:22;3.20;;;1.00;;
71116;SDS011;58775;46.992;9.518;2023-09-19T02:41:23;3.13;;;1.10;;
71116;SDS011;58775;46.992;9.518;2023-09-19T02:43:24;4.82;;;0.93;;
71116;SDS011;58775;46.992;9.518;2023-09-19T02:45:25;3.33;;;0.80;;
71116;SDS011;58775;46.992;9.518;2023-09-19T02:47:26;6.25;;;1.35;;
71116;SDS011;58775;46.992;9.518;2023-09-19T02:49:29;5.45;;;1.25;;
71116;SDS011;58775;46.992;9.518;2023-09-19T02:51:30;5.40;;;1.07;;
71116;SDS011;58775;46.992;9.518;2023-09-19T02:53:31;4.43;;;1.10;;
71116;SDS011;58775;46.992;9.518;2023-09-19T02:55:32;2.83;;;0.90;;
71116;SDS011;58775;46.992;9.518;2023-09-19T02:57:33;3.88;;;1.27;;
71116;SDS011;58775;46.992;9.518;2023-09-19T02:59:34;4.10;;;0.98;;
71116;SDS011;58775;46.992;9.518;2023-09-19T03:01:37;3.50;;;0.88;;
71116;SDS011;58775;46.992;9.518;2023-09-19T03:03:38;2.92;;;0.90;;
71116;SDS011;58775;46.992;9.518;2023-09-19T03:05:40;3.85;;;1.15;;
71116;SDS011;58775;46.992;9.518;2023-09-19T03:07:41;10.13;;;1.95;;
71116;SDS011;58775;46.992;9.518;2023-09-19T03:09:43;4.83;;;1.27;;
71116;SDS011;58775;46.992;9.518;2023-09-19T03:11:45;6.28;;;1.60;;
71116;SDS011;58775;46.992;9.518;2023-09-19T03:13:52;6.22;;;1.70;;
71116;SDS011;58775;46.992;9.518;2023-09-19T03:15:54;3.95;;;1.40;;
71116;SDS011;58775;46.992;9.518;2023-09-19T03:18:00;3.67;;;1.40;;
71116;SDS011;58775;46.992;9.518;2023-09-19T03:20:02;5.93;;;1.30;;
71116;SDS011;58775;46.992;9.518;2023-09-19T03:22:09;5.18;;;1.33;;
71116;SDS011;58775;46.992;9.518;2023-09-19T03:24:10;4.53;;;1.58;;
71116;SDS011;58775;46.992;9.518;2023-09-19T03:26:12;4.72;;;1.95;;
71116;SDS011;58775;46.992;9.518;2023-09-19T03:28:17;3.33;;;0.90;;
71116;SDS011;58775;46.992;9.518;2023-09-19T03:30:18;5.35;;;1.67;;
71116;SDS011;58775;46.992;9.518;2023-09-19T03:32:19;5.30;;;1.33;;
71116;SDS011;58775;46.992;9.518;2023-09-19T03:34:20;3.30;;;1.33;;
71116;SDS011;58775;46.992;9.518;2023-09-19T03:36:21;4.93;;;1.52;;
71116;SDS011;58775;46.992;9.518;2023-09-19T03:38:23;3.80;;;1.30;;
71116;SDS011;58775;46.992;9.518;2023-09-19T03:40:23;4.93;;;1.02;;
71116;SDS011;58775;46.992;9.518;2023-09-19T03:42:25;4.95;;;1.25;;
71116;SDS011;58775;46.992;9.518;2023-09-19T03:44:28;4.40;;;1.67;;
71116;SDS011;58775;46.992;9.518;2023-09-19T03:46:28;5.63;;;1.77;;
71116;SDS011;58775;46.992;9.518;2023-09-19T03:48:30;4.72;;;1.60;;
71116;SDS011;58775;46.992;9.518;2023-09-19T03:50:31;5.38;;;1.60;;
71116;SDS011;58775;46.992;9.518;2023-09-19T03:52:34;5.70;;;2.30;;
71116;SDS011;58775;46.992;9.518;2023-09-19T03:54:35;4.90;;;2.00;;
71116;SDS011;58775;46.992;9.518;2023-09-19T03:56:36;6.68;;;1.70;;
71116;SDS011;58775;46.992;9.518;2023-09-19T03:58:36;5.57;;;1.67;;
71116;SDS011;58775;46.992;9.518;2023-09-19T04:00:39;5.32;;;1.63;;
71116;SDS011;58775;46.992;9.518;2023-09-19T04:02:40;8.00;;;1.60;;
71116;SDS011;58775;46.992;9.518;2023-09-19T04:04:41;6.47;;;1.60;;
71116;SDS011;58775;46.992;9.518;2023-09-19T04:06:42;5.90;;;1.65;;
71116;SDS011;58775;46.992;9.518;2023-09-19T04:08:43;5.95;;;1.27;;
71116;SDS011;58775;46.992;9.518;2023-09-19T04:10:46;4.38;;;1.58;;
71116;SDS011;58775;46.992;9.518;2023-09-19T04:12:52;4.00;;;1.27;;
71116;SDS011;58775;46.992;9.518;2023-09-19T04:14:54;5.85;;;1.42;;
71116;SDS011;58775;46.992;9.518;2023-09-19T04:16:55;6.60;;;1.37;;
71116;SDS011;58775;46.992;9.518;2023-09-19T04:18:56;7.18;;;1.58;;
71116;SDS011;58775;46.992;9.518;2023-09-19T04:20:56;4.35;;;1.50;;
71116;SDS011;58775;46.992;9.518;2023-09-19T04:22:58;5.20;;;1.52;;
71116;SDS011;58775;46.992;9.518;2023-09-19T04:25:00;5.00;;;1.40;;
71116;SDS011;58775;46.992;9.518;2023-09-19T04:27:00;5.10;;;1.58;;
71116;SDS011;58775;46.992;9.518;2023-09-19T04:29:01;3.10;;;1.10;;
71116;SDS011;58775;46.992;9.518;2023-09-19T04:31:04;6.40;;;1.58;;
71116;SDS011;58775;46.992;9.518;2023-09-19T04:33:05;5.85;;;1.60;;
71116;SDS011;58775;46.992;9.518;2023-09-19T04:35:07;4.72;;;1.60;;
71116;SDS011;58775;46.992;9.518;2023-09-19T04:37:08;4.45;;;1.50;;
71116;SDS011;58775;46.992;9.518;2023-09-19T04:39:09;5.43;;;1.23;;
71116;SDS011;58775;46.992;9.518;2023-09-19T04:41:12;4.78;;;1.65;;
71116;SDS011;58775;46.992;9.518;2023-09-19T04:43:15;6.75;;;1.77;;
71116;SDS011;58775;46.992;9.518;2023-09-19T04:45:16;3.13;;;1.10;;
71116;SDS011;58775;46.992;9.518;2023-09-19T04:47:16;4.65;;;1.52;;
71116;SDS011;58775;46.992;9.518;2023-09-19T04:49:17;5.67;;;1.40;;
71116;SDS011;58775;46.992;9.518;2023-09-19T04:51:18;5.18;;;1.35;;
71116;SDS011;58775;46.992;9.518;2023-09-19T04:53:20;6.57;;;1.77;;
71116;SDS011;58775;46.992;9.518;2023-09-19T04:55:21;4.70;;;1.48;;
71116;SDS011;58775;46.992;9.518;2023-09-19T04:57:22;5.07;;;1.30;;
71116;SDS011;58775;46.992;9.518;2023-09-19T04:59:23;4.45;;;1.35;;
71116;SDS011;58775;46.992;9.518;2023-09-19T05:01:24;5.23;;;1.70;;
71116;SDS011;58775;46.992;9.518;2023-09-19T05:03:25;6.35;;;1.60;;
71116;SDS011;58775;46.992;9.518;2023-09-19T05:05:26;5.28;;;1.50;;
71116;SDS011;58775;46.992;9.518;2023-09-19T05:07:27;5.97;;;1.60;;
71116;SDS011;58775;46.992;9.518;2023-09-19T05:09:27;6.45;;;1.50;;
71116;SDS011;58775;46.992;9.518;2023-09-19T05:11:28;5.57;;;1.43;;
71116;SDS011;58775;46.992;9.518;2023-09-19T05:13:30;5.18;;;1.58;;
71116;SDS011;58775;46.992;9.518;2023-09-19T05:15:31;5.22;;;1.90;;
71116;SDS011;58775;46.992;9.518;2023-09-19T05:17:35;7.60;;;1.70;;
71116;SDS011;58775;46.992;9.518;2023-09-19T05:19:36;3.80;;;1.47;;
71116;SDS011;58775;46.992;9.518;2023-09-19T05:21:38;3.53;;;1.20;;
71116;SDS011;58775;46.992;9.518;2023-09-19T05:23:39;5.00;;;1.55;;
71116;SDS011;58775;46.992;9.518;2023-09-19T05:25:41;4.00;;;1.40;;
71116;SDS011;58775;46.992;9.518;2023-09-19T05:27:43;5.35;;;1.92;;
71116;SDS011;58775;46.992;9.518;2023-09-19T05:29:44;4.07;;;1.33;;
71116;SDS011;58775;46.992;9.518;2023-09-19T05:31:45;4.65;;;1.40;;
71116;SDS011;58775;46.992;9.518;2023-09-19T05:33:46;4.95;;;1.15;;
71116;SDS011;58775;46.992;9.518;2023-09-19T05:35:50;4.80;;;1.77;;
71116;SDS011;58775;46.992;9.518;2023-09-19T05:37:51;5.53;;;1.60;;
71116;SDS011;58775;46.992;9.518;2023-09-19T05:39:52;6.25;;;1.70;;
71116;SDS011;58775;46.992;9.518;2023-09-19T05:41:55;6.20;;;2.20;;
71116;SDS011;58775;46.992;9.518;2023-09-19T05:43:57;5.22;;;1.73;;
71116;SDS011;58775;46.992;9.518;2023-09-19T05:46:00;6.05;;;1.55;;
71116;SDS011;58775;46.992;9.518;2023-09-19T05:48:10;5.55;;;1.85;;
71116;SDS011;58775;46.992;9.518;2023-09-19T05:50:13;5.13;;;2.83;;
71116;SDS011;58775;46.992;9.518;2023-09-19T05:52:15;3.80;;;1.50;;
71116;SDS011;58775;46.992;9.518;2023-09-19T05:54:18;5.97;;;1.97;;
71116;SDS011;58775;46.992;9.518;2023-09-19T05:56:20;5.10;;;1.20;;
71116;SDS011;58775;46.992;9.518;2023-09-19T05:58:21;6.55;;;1.55;;
71116;SDS011;58775;46.992;9.518;2023-09-19T06:00:23;7.67;;;1.77;;
71116;SDS011;58775;46.992;9.518;2023-09-19T06:02:25;4.88;;;1.33;;
71116;SDS011;58775;46.992;9.518;2023-09-19T06:04:30;4.32;;;1.55;;
71116;SDS011;58775;46.992;9.518;2023-09-19T06:06:31;6.47;;;2.40;;
71116;SDS011;58775;46.992;9.518;2023-09-19T06:08:34;4.15;;;1.60;;
71116;SDS011;58775;46.992;9.518;2023-09-19T06:10:35;6.47;;;1.40;;
71116;SDS011;58775;46.992;9.518;2023-09-19T06:12:39;5.03;;;1.67;;
71116;SDS011;58775;46.992;9.518;2023-09-19T06:14:40;5.50;;;1.45;;
71116;SDS011;58775;46.992;9.518;2023-09-19T06:16:41;5.17;;;1.60;;
71116;SDS011;58775;46.992;9.518;2023-09-19T06:18:42;5.88;;;1.40;;
71116;SDS011;58775;46.992;9.518;2023-09-19T06:20:43;5.90;;;1.95;;
71116;SDS011;58775;46.992;9.518;2023-09-19T06:22:45;4.00;;;1.13;;
71116;SDS011;58775;46.992;9.518;2023-09-19T06:24:46;3.75;;;1.40;;
71116;SDS011;58775;46.992;9.518;2023-09-19T06:26:47;5.20;;;1.83;;
71116;SDS011;58775;46.992;9.518;2023-09-19T06:28:49;6.07;;;1.45;;
71116;SDS011;58775;46.992;9.518;2023-09-19T06:30:50;4.73;;;1.63;;
71116;SDS011;58775;46.992;9.518;2023-09-19T06:32:57;3.65;;;1.13;;
71116;SDS011;58775;46.992;9.518;2023-09-19T06:34:59;4.70;;;1.80;;
71116;SDS011;58775;46.992;9.518;2023-09-19T06:36:59;4.77;;;1.30;;
71116;SDS011;58775;46.992;9.518;2023-09-19T06:39:00;5.18;;;1.50;;
71116;SDS011;58775;46.992;9.518;2023-09-19T06:41:01;4.37;;;1.53;;
71116;SDS011;58775;46.992;9.518;2023-09-19T06:43:07;6.78;;;1.98;;
71116;SDS011;58775;46.992;9.518;2023-09-19T06:45:09;5.15;;;1.75;;
71116;SDS011;58775;46.992;9.518;2023-09-19T06:47:17;3.38;;;1.40;;
71116;SDS011;58775;46.992;9.518;2023-09-19T06:49:18;4.30;;;1.40;;
71116;SDS011;58775;46.992;9.518;2023-09-19T06:51:19;5.38;;;1.48;;
71116;SDS011;58775;46.992;9.518;2023-09-19T06:53:20;3.45;;;1.48;;
71116;SDS011;58775;46.992;9.518;2023-09-19T06:55:23;2.88;;;1.27;;
71116;SDS011;58775;46.992;9.518;2023-09-19T06:57:25;6.45;;;1.60;;
71116;SDS011;58775;46.992;9.518;2023-09-19T06:59:26;8.50;;;1.55;;
71116;SDS011;58775;46.992;9.518;2023-09-19T07:01:26;6.25;;;1.70;;
71116;SDS011;58775;46.992;9.518;2023-09-19T07:03:27;5.13;;;1.65;;
71116;SDS011;58775;46.992;9.518;2023-09-19T07:05:31;3.92;;;1.50;;
71116;SDS011;58775;46.992;9.518;2023-09-19T07:07:33;7.40;;;1.60;;
71116;SDS011;58775;46.992;9.518;2023-09-19T07:09:37;4.13;;;1.42;;
71116;SDS011;58775;46.992;9.518;2023-09-19T07:11:38;6.23;;;1.67;;
71116;SDS011;58775;46.992;9.518;2023-09-19T07:13:39;6.22;;;1.90;;
71116;SDS011;58775;46.992;9.518;2023-09-19T07:15:39;4.77;;;1.83;;
71116;SDS011;58775;46.992;9.518;2023-09-19T07:17:46;5.22;;;1.80;;
71116;SDS011;58775;46.992;9.518;2023-09-19T07:19:48;4.53;;;1.30;;
71116;SDS011;58775;46.992;9.518;2023-09-19T07:21:49;4.82;;;1.60;;
71116;SDS011;58775;46.992;9.518;2023-09-19T07:23:50;5.38;;;1.60;;
71116;SDS011;58775;46.992;9.518;2023-09-19T07:25:51;5.87;;;1.50;;
71116;SDS011;58775;46.992;9.518;2023-09-19T07:27:52;5.47;;;1.90;;
71116;SDS011;58775;46.992;9.518;2023-09-19T07:29:55;4.90;;;2.00;;
71116;SDS011;58775;46.992;9.518;2023-09-19T07:31:56;5.60;;;1.70;;
71116;SDS011;58775;46.992;9.518;2023-09-19T07:33:57;4.50;;;1.73;;
71116;SDS011;58775;46.992;9.518;2023-09-19T07:35:57;4.93;;;1.83;;
71116;SDS011;58775;46.992;9.518;2023-09-19T07:37:59;4.80;;;1.73;;
71116;SDS011;58775;46.992;9.518;2023-09-19T07:40:04;6.63;;;2.25;;
71116;SDS011;58775;46.992;9.518;2023-09-19T07:42:07;4.28;;;1.80;;
71116;SDS011;58775;46.992;9.518;2023-09-19T07:44:08;5.87;;;2.13;;
71116;SDS011;58775;46.992;9.518;2023-09-19T07:46:10;4.53;;;1.75;;
71116;SDS011;58775;46.992;9.518;2023-09-19T07:48:11;5.22;;;1.77;;
71116;SDS011;58775;46.992;9.518;2023-09-19T07:50:18;4.82;;;1.75;;
71116;SDS011;58775;46.992;9.518;2023-09-19T07:52:20;5.18;;;1.80;;
71116;SDS011;58775;46.992;9.518;2023-09-19T07:54:22;9.50;;;1.77;;
71116;SDS011;58775;46.992;9.518;2023-09-19T07:56:23;6.32;;;2.03;;
71116;SDS011;58775;46.992;9.518;2023-09-19T07:58:26;4.65;;;1.83;;
71116;SDS011;58775;46.992;9.518;2023-09-19T08:00:27;3.97;;;1.50;;
71116;SDS011;58775;46.992;9.518;2023-09-19T08:02:27;6.80;;;1.77;;
71116;SDS011;58775;46.992;9.518;2023-09-19T08:04:28;5.75;;;2.38;;
71116;SDS011;58775;46.992;9.518;2023-09-19T08:06:30;4.30;;;1.30;;
71116;SDS011;58775;46.992;9.518;2023-09-19T08:08:31;4.40;;;1.50;;
71116;SDS011;58775;46.992;9.518;2023-09-19T08:10:32;3.47;;;1.25;;
71116;SDS011;58775;46.992;9.518;2023-09-19T08:12:35;4.53;;;1.50;;
71116;SDS011;58775;46.992;9.518;2023-09-19T08:14:36;6.15;;;1.73;;
71116;SDS011;58775;46.992;9.518;2023-09-19T08:16:38;3.08;;;1.52;;
71116;SDS011;58775;46.992;9.518;2023-09-19T08:18:39;5.53;;;1.60;;
71116;SDS011;58775;46.992;9.518;2023-09-19T08:20:40;7.10;;;1.48;;
71116;SDS011;58775;46.992;9.518;2023-09-19T08:22:49;6.63;;;1.30;;
71116;SDS011;58775;46.992;9.518;2023-09-19T08:24:52;4.72;;;1.40;;
71116;SDS011;58775;46.992;9.518;2023-09-19T08:26:56;4.20;;;1.30;;
71116;SDS011;58775;46.992;9.518;2023-09-19T08:28:57;5.45;;;1.30;;
71116;SDS011;58775;46.992;9.518;2023-09-19T08:31:05;8.05;;;1.90;;
71116;SDS011;58775;46.992;9.518;2023-09-19T08:33:07;7.37;;;1.60;;
71116;SDS011;58775;46.992;9.518;2023-09-19T08:35:08;6.18;;;1.67;;
71116;SDS011;58775;46.992;9.518;2023-09-19T08:37:12;5.88;;;1.60;;
71116;SDS011;58775;46.992;9.518;2023-09-19T08:39:13;5.63;;;1.45;;
71116;SDS011;58775;46.992;9.518;2023-09-19T08:41:14;4.07;;;1.30;;
71116;SDS011;58775;46.992;9.518;2023-09-19T08:43:18;3.70;;;1.20;;
71116;SDS011;58775;46.992;9.518;2023-09-19T08:45:25;3.70;;;1.40;;
71116;SDS011;58775;46.992;9.518;2023-09-19T08:47:33;3.95;;;1.40;;
71116;SDS011;58775;46.992;9.518;2023-09-19T08:49:44;3.83;;;1.07;;
71116;SDS011;58775;46.992;9.518;2023-09-19T08:54:25;5.18;;;1.23;;
71116;SDS011;58775;46.992;9.518;2023-09-19T08:56:29;4.07;;;1.20;;
71116;SDS011;58775;46.992;9.518;2023-09-19T08:58:34;3.35;;;1.30;;
71116;SDS011;58775;46.992;9.518;2023-09-19T09:00:47;3.47;;;1.37;;
71116;SDS011;58775;46.992;9.518;2023-09-19T09:02:50;3.15;;;1.17;;
71116;SDS011;58775;46.992;9.518;2023-09-19T09:04:52;3.55;;;1.25;;
71116;SDS011;58775;46.992;9.518;2023-09-19T09:06:55;3.13;;;1.30;;
71116;SDS011;58775;46.992;9.518;2023-09-19T09:08:56;3.38;;;1.20;;
71116;SDS011;58775;46.992;9.518;2023-09-19T09:10:58;3.13;;;1.37;;
71116;SDS011;58775;46.992;9.518;2023-09-19T09:12:59;4.65;;;1.70;;
71116;SDS011;58775;46.992;9.518;2023-09-19T09:15:01;5.50;;;1.50;;
71116;SDS011;58775;46.992;9.518;2023-09-19T09:17:03;4.70;;;1.70;;
71116;SDS011;58775;46.992;9.518;2023-09-19T09:19:04;4.43;;;1.50;;
71116;SDS011;58775;46.992;9.518;2023-09-19T09:21:05;3.83;;;1.60;;
71116;SDS011;58775;46.992;9.518;2023-09-19T09:23:07;3.40;;;1.45;;
71116;SDS011;58775;46.992;9.518;2023-09-19T09:25:08;5.45;;;1.65;;
71116;SDS011;58775;46.992;9.518;2023-09-19T09:27:09;3.23;;;1.60;;
71116;SDS011;58775;46.992;9.518;2023-09-19T09:29:13;7.05;;;1.85;;
71116;SDS011;58775;46.992;9.518;2023-09-19T09:31:23;3.30;;;1.52;;
71116;SDS011;58775;46.992;9.518;2023-09-19T09:33:25;4.43;;;1.73;;
71116;SDS011;58775;46.992;9.518;2023-09-19T09:35:26;4.50;;;2.10;;
71116;SDS011;58775;46.992;9.518;2023-09-19T09:37:27;5.90;;;2.47;;
71116;SDS011;58775;46.992;9.518;2023-09-19T09:39:30;5.13;;;2.40;;
71116;SDS011;58775;46.992;9.518;2023-09-19T09:41:37;6.70;;;2.53;;
71116;SDS011;58775;46.992;9.518;2023-09-19T09:43:40;5.72;;;2.70;;
71116;SDS011;58775;46.992;9.518;2023-09-19T09:45:42;7.05;;;2.80;;
71116;SDS011;58775;46.992;9.518;2023-09-19T09:47:48;7.05;;;2.53;;
71116;SDS011;58775;46.992;9.518;2023-09-19T09:49:58;7.82;;;2.92;;
71116;SDS011;58775;46.992;9.518;2023-09-19T09:52:07;6.47;;;3.22;;
71116;SDS011;58775;46.992;9.518;2023-09-19T09:54:17;7.07;;;3.38;;
71116;SDS011;58775;46.992;9.518;2023-09-19T09:56:22;6.43;;;3.22;;
71116;SDS011;58775;46.992;9.518;2023-09-19T09:58:23;6.28;;;3.28;;
71116;SDS011;58775;46.992;9.518;2023-09-19T10:00:29;7.95;;;3.60;;
71116;SDS011;58775;46.992;9.518;2023-09-19T10:02:42;8.57;;;3.67;;
71116;SDS011;58775;46.992;9.518;2023-09-19T10:04:46;6.50;;;3.20;;
71116;SDS011;58775;46.992;9.518;2023-09-19T10:07:26;8.88;;;3.38;;
71116;SDS011;58775;46.992;9.518;2023-09-19T10:09:50;6.70;;;3.15;;
71116;SDS011;58775;46.992;9.518;2023-09-19T10:12:07;5.25;;;2.63;;
71116;SDS011;58775;46.992;9.518;2023-09-19T10:14:13;6.80;;;2.30;;
71116;SDS011;58775;46.992;9.518;2023-09-19T10:16:20;4.10;;;1.98;;
71116;SDS011;58775;46.992;9.518;2023-09-19T10:18:26;3.80;;;1.98;;
71116;SDS011;58775;46.992;9.518;2023-09-19T10:20:29;3.97;;;1.58;;
71116;SDS011;58775;46.992;9.518;2023-09-19T10:22:35;6.38;;;2.30;;
71116;SDS011;58775;46.992;9.518;2023-09-19T10:24:37;5.03;;;1.80;;
71116;SDS011;58775;46.992;9.518;2023-09-19T10:26:40;3.97;;;1.70;;
71116;SDS011;58775;46.992;9.518;2023-09-19T10:28:43;4.85;;;1.95;;
71116;SDS011;58775;46.992;9.518;2023-09-19T10:30:50;5.35;;;2.13;;
71116;SDS011;58775;46.992;9.518;2023-09-19T10:33:02;4.68;;;1.90;;
71116;SDS011;58775;46.992;9.518;2023-09-19T10:35:04;4.60;;;1.67;;
71116;SDS011;58775;46.992;9.518;2023-09-19T10:37:07;4.20;;;1.70;;
71116;SDS011;58775;46.992;9.518;2023-09-19T10:39:15;4.68;;;2.03;;
71116;SDS011;58775;46.992;9.518;2023-09-19T10:41:19;5.13;;;1.98;;
71116;SDS011;58775;46.992;9.518;2023-09-19T10:43:25;3.63;;;1.60;;
71116;SDS011;58775;46.992;9.518;2023-09-19T10:45:31;5.00;;;1.73;;
71116;SDS011;58775;46.992;9.518;2023-09-19T10:47:33;3.47;;;1.65;;
71116;SDS011;58775;46.992;9.518;2023-09-19T10:49:35;3.88;;;1.75;;
71116;SDS011;58775;46.992;9.518;2023-09-19T10:51:39;3.40;;;1.38;;
71116;SDS011;58775;46.992;9.518;2023-09-19T10:56:27;4.43;;;1.27;;
71116;SDS011;58775;46.992;9.518;2023-09-19T10:58:32;5.80;;;1.23;;
71116;SDS011;58775;46.992;9.518;2023-09-19T11:00:52;3.45;;;1.20;;
71116;SDS011;58775;46.992;9.518;2023-09-19T11:05:12;3.45;;;1.20;;
71116;SDS011;58775;46.992;9.518;2023-09-19T11:07:14;2.97;;;1.20;;
71116;SDS011;58775;46.992;9.518;2023-09-19T11:09:15;3.03;;;1.20;;
71116;SDS011;58775;46.992;9.518;2023-09-19T11:14:13;2.95;;;1.10;;
71116;SDS011;58775;46.992;9.518;2023-09-19T11:16:24;2.10;;;1.10;;
71116;SDS011;58775;46.992;9.518;2023-09-19T11:20:41;3.33;;;1.20;;
71116;SDS011;58775;46.992;9.518;2023-09-19T11:24:50;3.40;;;1.42;;
71116;SDS011;58775;46.992;9.518;2023-09-19T11:26:57;1.57;;;0.90;;
71116;SDS011;58775;46.992;9.518;2023-09-19T11:29:31;2.13;;;1.00;;
71116;SDS011;58775;46.992;9.518;2023-09-19T11:31:42;3.30;;;1.00;;
71116;SDS011;58775;46.992;9.518;2023-09-19T11:33:44;2.13;;;1.00;;
71116;SDS011;58775;46.992;9.518;2023-09-19T11:38:06;2.53;;;1.00;;
71116;SDS011;58775;46.992;9.518;2023-09-19T11:40:08;1.83;;;1.00;;
71116;SDS011;58775;46.992;9.518;2023-09-19T11:44:54;1.88;;;1.00;;
71116;SDS011;58775;46.992;9.518;2023-09-19T11:46:56;1.90;;;1.00;;
71116;SDS011;58775;46.992;9.518;2023-09-19T11:49:06;1.77;;;0.93;;
71116;SDS011;58775;46.992;9.518;2023-09-19T11:51:16;3.28;;;1.40;;
71116;SDS011;58775;46.992;9.518;2023-09-19T11:53:36;1.80;;;0.90;;
71116;SDS011;58775;46.992;9.518;2023-09-19T11:55:39;2.40;;;1.02;;
71116;SDS011;58775;46.992;9.518;2023-09-19T11:57:43;2.42;;;1.00;;
71116;SDS011;58775;46.992;9.518;2023-09-19T11:59:44;2.33;;;0.90;;
71116;SDS011;58775;46.992;9.518;2023-09-19T12:01:51;1.33;;;0.82;;
71116;SDS011;58775;46.992;9.518;2023-09-19T12:04:00;5.82;;;1.10;;
71116;SDS011;58775;46.992;9.518;2023-09-19T12:06:02;1.77;;;0.90;;
71116;SDS011;58775;46.992;9.518;2023-09-19T12:08:14;2.40;;;1.00;;
71116;SDS011;58775;46.992;9.518;2023-09-19T12:10:17;2.30;;;0.80;;
71116;SDS011;58775;46.992;9.518;2023-09-19T12:12:20;1.98;;;0.80;;
71116;SDS011;58775;46.992;9.518;2023-09-19T12:14:23;1.77;;;0.98;;
71116;SDS011;58775;46.992;9.518;2023-09-19T12:16:26;3.28;;;0.90;;
71116;SDS011;58775;46.992;9.518;2023-09-19T12:18:30;2.42;;;0.88;;
71116;SDS011;58775;46.992;9.518;2023-09-19T12:20:42;3.87;;;0.90;;
71116;SDS011;58775;46.992;9.518;2023-09-19T12:22:47;3.60;;;1.10;;
71116;SDS011;58775;46.992;9.518;2023-09-19T12:24:50;2.85;;;0.90;;
71116;SDS011;58775;46.992;9.518;2023-09-19T12:26:51;1.55;;;0.90;;
71116;SDS011;58775;46.992;9.518;2023-09-19T12:28:52;2.65;;;0.90;;
71116;SDS011;58775;46.992;9.518;2023-09-19T12:30:55;3.87;;;1.10;;
71116;SDS011;58775;46.992;9.518;2023-09-19T12:32:56;3.63;;;1.02;;
71116;SDS011;58775;46.992;9.518;2023-09-19T12:34:59;2.78;;;0.95;;
71116;SDS011;58775;46.992;9.518;2023-09-19T12:37:18;3.50;;;1.20;;
71116;SDS011;58775;46.992;9.518;2023-09-19T12:39:30;2.10;;;0.80;;
71116;SDS011;58775;46.992;9.518;2023-09-19T12:41:31;2.75;;;0.88;;
71116;SDS011;58775;46.992;9.518;2023-09-19T12:43:32;2.90;;;0.80;;
71116;SDS011;58775;46.992;9.518;2023-09-19T12:45:35;1.92;;;0.90;;
71116;SDS011;58775;46.992;9.518;2023-09-19T12:47:37;6.70;;;1.00;;
71116;SDS011;58775;46.992;9.518;2023-09-19T12:52:06;2.65;;;0.90;;
71116;SDS011;58775;46.992;9.518;2023-09-19T12:54:10;2.95;;;0.85;;
71116;SDS011;58775;46.992;9.518;2023-09-19T12:56:15;1.85;;;0.90;;
71116;SDS011;58775;46.992;9.518;2023-09-19T12:58:17;3.88;;;0.98;;
71116;SDS011;58775;46.992;9.518;2023-09-19T13:00:19;4.85;;;1.00;;
71116;SDS011;58775;46.992;9.518;2023-09-19T13:02:24;2.15;;;0.80;;